Terminal Aerodrome Forecast
Issued by NWS Northern Indiana

Home | Current Version | Previous Version | Graphics & Text | Print | Product List | Glossary On
Versions: 1 2 3 4 5 6 7 8 9 10 11 12
000
FTUS43 KIWX 241100
TAFFWA
TAF
KFWA 241139Z 2412/2512 36012KT 3SM -RA BR OVC006
     FM241400 04012G18KT 2SM -RA BR OVC006
     FM241800 30012G18KT 3SM -RA BR OVC006
     FM242200 27018G32KT 3SM -RA BR OVC008
     FM250100 26017G30KT 3SM -RASN OVC010
     FM250300 26014G26KT 2SM -SN BR OVC009=

USA.gov is the U.S. government's official web portal to all federal, state and local government web resources and services.